Time;durP1;ratioP1;P1;durP2;ratioP2;P2;SDS_P1;SDS_P2;PMS_P1;PMS_P2;Temp;Humidity;BMP_temperature;BMP_pressure;BME280_temperature;BME280_humidity;BME280_pressure;Samples;Min_cycle;Max_cycle;Signal;HPM_P1;HPM_P2
2022/11/30 00:00:07;;;;;;;;;;;2.20;99.90;;;1.15;100.00;95858.97;10502010;28;2097;-70
2022/11/30 00:05:18;;;;;;;;;;;2.20;99.90;;;1.22;100.00;95849.16;10504376;28;2129;-69
2022/11/30 00:10:21;;;;;;;;;;;2.30;99.90;;;1.27;100.00;95851.94;10504948;28;2019;-70
2022/11/30 00:15:25;;;;;;;;;;;2.30;99.90;;;1.19;100.00;95855.66;10535665;27;2024;-68
2022/11/30 00:20:28;;;;;;;;;;;2.30;99.90;;;1.12;100.00;95854.06;10502186;28;2143;-69
2022/11/30 00:25:32;;;;;;;;;;;2.30;99.90;;;1.29;100.00;95865.81;10508947;28;2205;-76
2022/11/30 00:30:34;;;;;;;;;;;2.30;99.90;;;1.21;100.00;95858.09;10515643;28;2045;-74
2022/11/30 00:35:38;;;;;;;;;;;2.30;99.90;;;1.17;100.00;95851.63;10506657;28;1998;-71
2022/11/30 00:40:40;;;;;;;;;;;2.30;99.90;;;1.19;100.00;95854.84;10507889;28;2138;-75
2022/11/30 00:45:43;;;;;;;;;;;2.30;99.90;;;1.10;100.00;95859.59;10501350;28;2022;-76
2022/11/30 00:50:46;;;;;;;;;;;2.20;99.90;;;1.13;100.00;95861.00;10507667;28;1991;-77
2022/11/30 00:55:49;;;;;;;;;;;2.10;99.90;;;1.29;100.00;95871.91;10501194;28;2038;-70
2022/11/30 01:00:51;;;;;;;;;;;2.30;99.90;;;1.36;100.00;95871.88;10504661;28;2006;-70
2022/11/30 01:05:54;;;;;;;;;;;2.40;99.90;;;1.51;100.00;95872.38;10511313;28;2070;-69
2022/11/30 01:10:57;;;;;;;;;;;2.40;99.90;;;1.65;100.00;95874.91;10516311;28;1996;-69
2022/11/30 01:16:00;;;;;;;;;;;2.60;99.90;;;1.67;100.00;95871.06;10520571;28;1749;-69
2022/11/30 01:21:03;;;;;;;;;;;2.70;99.90;;;1.59;100.00;95868.63;10508013;28;1980;-70
2022/11/30 01:26:05;;;;;;;;;;;2.50;99.90;;;1.55;100.00;95870.94;10507689;28;2046;-70
2022/11/30 01:31:08;;;;;;;;;;;2.60;99.90;;;1.66;100.00;95873.91;10507424;28;2007;-69
2022/11/30 01:36:11;;;;;;;;;;;2.60;99.90;;;1.72;100.00;95876.53;10503126;28;2066;-69
2022/11/30 01:41:13;;;;;;;;;;;2.70;99.90;;;1.44;100.00;95868.97;10498252;28;2033;-68
2022/11/30 01:46:16;;;;;;;;;;;2.70;99.90;;;1.32;100.00;95870.66;10496063;28;2020;-69
2022/11/30 01:51:19;;;;;;;;;;;2.50;99.90;;;1.37;100.00;95878.78;10510776;28;2061;-68
2022/11/30 01:56:21;;;;;;;;;;;2.50;99.90;;;1.33;100.00;95882.88;10504831;28;2010;-68
2022/11/30 02:01:28;;;;;;;;;;;2.40;99.90;;;1.43;100.00;95869.97;10507755;28;2038;-68
2022/11/30 02:06:31;;;;;;;;;;;2.50;99.90;;;1.43;100.00;95871.81;10510291;28;2064;-68
2022/11/30 02:11:33;;;;;;;;;;;2.50;99.90;;;1.41;100.00;95868.59;10518074;28;2054;-68
2022/11/30 02:16:43;;;;;;;;;;;2.50;99.90;;;1.43;100.00;95867.34;10506975;28;2075;-69
2022/11/30 02:21:45;;;;;;;;;;;2.50;99.90;;;1.42;100.00;95865.72;10513521;28;2320;-68
2022/11/30 02:26:48;;;;;;;;;;;2.40;99.90;;;1.31;100.00;95863.75;10508645;28;1935;-68
2022/11/30 02:31:51;;;;;;;;;;;2.40;99.90;;;1.45;100.00;95875.06;10516652;28;2068;-70
2022/11/30 02:36:54;;;;;;;;;;;2.40;99.90;;;1.52;100.00;95876.63;10509608;28;2065;-69
2022/11/30 02:41:57;;;;;;;;;;;2.50;99.90;;;1.37;100.00;95884.09;10508163;28;2060;-69
2022/11/30 02:46:59;;;;;;;;;;;2.60;99.90;;;1.43;100.00;95887.72;10510552;28;2114;-70
2022/11/30 02:52:02;;;;;;;;;;;2.50;99.90;;;1.44;100.00;95891.97;10504227;28;1991;-70
2022/11/30 02:57:05;;;;;;;;;;;2.50;99.90;;;1.46;100.00;95893.38;10520666;28;2126;-74
2022/11/30 03:02:07;;;;;;;;;;;2.50;99.90;;;1.38;100.00;95882.25;10502519;28;2243;-70
2022/11/30 03:07:10;;;;;;;;;;;2.40;99.90;;;1.36;100.00;95887.75;10510308;28;2013;-70
2022/11/30 03:12:12;;;;;;;;;;;2.40;99.90;;;1.31;100.00;95891.03;10508217;28;2091;-69
2022/11/30 03:17:15;;;;;;;;;;;2.40;99.90;;;1.34;100.00;95903.06;10522632;28;2054;-69
2022/11/30 03:22:17;;;;;;;;;;;2.40;99.90;;;1.33;100.00;95904.06;10509647;28;2046;-69
2022/11/30 03:27:21;;;;;;;;;;;2.50;99.90;;;1.33;100.00;95901.41;10510777;28;2082;-70
2022/11/30 03:32:24;;;;;;;;;;;2.30;99.90;;;1.29;100.00;95897.59;10518266;28;2078;-69
2022/11/30 03:37:26;;;;;;;;;;;2.30;99.90;;;1.28;100.00;95911.84;10509162;28;2081;-70
2022/11/30 03:42:29;;;;;;;;;;;2.40;99.90;;;1.14;100.00;95911.06;10515255;28;2122;-73
2022/11/30 03:47:32;;;;;;;;;;;2.20;99.90;;;1.22;100.00;95918.00;10495374;28;2165;-70
2022/11/30 03:52:35;;;;;;;;;;;2.20;99.90;;;1.26;100.00;95917.34;10513751;28;2077;-74
2022/11/30 03:57:37;;;;;;;;;;;2.20;99.90;;;1.16;100.00;95908.25;10511180;28;2359;-76
2022/11/30 04:02:40;;;;;;;;;;;2.30;99.90;;;1.28;100.00;95911.84;10495586;28;2057;-69
2022/11/30 04:07:46;;;;;;;;;;;2.30;99.90;;;1.20;100.00;95909.44;10518250;28;2061;-69
2022/11/30 04:12:49;;;;;;;;;;;2.30;99.90;;;1.37;100.00;95901.81;10510243;28;2037;-69
2022/11/30 04:17:57;;;;;;;;;;;2.30;99.90;;;1.49;100.00;95908.88;10506135;28;2343;-69
2022/11/30 04:23:00;;;;;;;;;;;2.40;99.90;;;1.47;100.00;95907.47;10510322;28;1974;-68
2022/11/30 04:28:02;;;;;;;;;;;2.50;99.90;;;1.41;100.00;95901.19;10512641;28;1979;-68
2022/11/30 04:33:05;;;;;;;;;;;2.40;99.90;;;1.33;100.00;95896.94;10512899;28;2177;-69
2022/11/30 04:38:08;;;;;;;;;;;2.30;99.90;;;1.46;100.00;95898.69;10503600;28;2112;-68
2022/11/30 04:43:10;;;;;;;;;;;2.40;99.90;;;1.35;100.00;95904.69;10510423;28;2025;-68
2022/11/30 04:48:23;;;;;;;;;;;2.50;99.90;;;1.32;100.00;95910.38;10508716;28;1997;-68
2022/11/30 04:53:25;;;;;;;;;;;2.40;99.90;;;1.34;100.00;95917.13;10502900;28;2041;-69
2022/11/30 04:58:28;;;;;;;;;;;2.40;99.90;;;1.29;100.00;95908.19;10508937;28;2045;-73
2022/11/30 05:03:31;;;;;;;;;;;2.40;99.90;;;1.23;100.00;95916.97;10515330;28;1955;-76
2022/11/30 05:08:33;;;;;;;;;;;2.30;99.90;;;1.19;100.00;95918.41;10516407;28;2032;-76
2022/11/30 05:13:36;;;;;;;;;;;2.30;99.90;;;1.23;100.00;95919.63;10512024;28;2094;-74
2022/11/30 05:18:39;;;;;;;;;;;2.30;99.90;;;1.21;100.00;95919.00;10515391;28;1923;-74
2022/11/30 05:23:41;;;;;;;;;;;2.30;99.90;;;1.28;100.00;95922.44;10506396;28;2045;-69
2022/11/30 05:28:44;;;;;;;;;;;2.30;99.90;;;1.38;100.00;95927.28;10529089;28;2058;-68
2022/11/30 05:33:46;;;;;;;;;;;2.30;99.90;;;1.46;100.00;95924.38;10506826;28;2132;-69
2022/11/30 05:38:59;;;;;;;;;;;2.40;99.90;;;1.46;100.00;95932.31;10504881;28;2027;-70
2022/11/30 05:44:02;;;;;;;;;;;2.50;99.90;;;1.30;100.00;95941.56;10510549;28;2087;-71
2022/11/30 05:49:05;;;;;;;;;;;2.40;99.90;;;1.41;100.00;95942.75;10514483;28;2048;-69
2022/11/30 05:54:08;;;;;;;;;;;2.40;99.90;;;1.34;100.00;95937.50;10519064;28;2140;-70
2022/11/30 05:59:10;;;;;;;;;;;2.40;99.90;;;1.55;100.00;95933.69;10514860;28;2002;-69
2022/11/30 06:04:13;;;;;;;;;;;2.50;99.90;;;1.61;100.00;95931.00;10517523;28;1958;-69
2022/11/30 06:09:15;;;;;;;;;;;2.60;99.90;;;1.66;100.00;95940.16;10507988;28;2085;-71
2022/11/30 06:14:18;;;;;;;;;;;2.70;99.90;;;1.73;100.00;95936.44;10523431;28;2073;-71
2022/11/30 06:19:21;;;;;;;;;;;2.70;99.90;;;1.71;100.00;95937.66;10513583;28;2110;-69
2022/11/30 06:24:24;;;;;;;;;;;2.80;99.90;;;1.79;100.00;95929.47;10503299;28;2231;-70
2022/11/30 06:29:26;;;;;;;;;;;2.80;99.90;;;1.75;100.00;95929.09;10512507;28;2060;-70
2022/11/30 06:34:29;;;;;;;;;;;2.80;99.90;;;1.74;100.00;95942.56;10522415;28;1998;-74
2022/11/30 06:39:32;;;;;;;;;;;2.80;99.90;;;1.81;100.00;95938.03;10518085;28;2094;-74
2022/11/30 06:45:01;;;;;;;;;;;2.80;99.90;;;1.68;100.00;95933.63;10519498;28;2287;-70
2022/11/30 06:50:04;;;;;;;;;;;2.80;99.90;;;1.76;100.00;95936.00;10528692;28;2029;-72
2022/11/30 06:55:08;;;;;;;;;;;2.80;99.90;;;1.78;100.00;95933.13;10533540;28;1899;-69
2022/11/30 07:00:11;;;;;;;;;;;2.80;99.90;;;1.82;100.00;95945.75;10521402;28;2110;-69
2022/11/30 07:05:14;;;;;;;;;;;2.90;99.90;;;1.80;100.00;95941.69;10520559;28;2089;-75
2022/11/30 07:10:16;;;;;;;;;;;2.80;99.90;;;1.79;100.00;95945.38;10515800;28;2032;-73
2022/11/30 07:15:22;;;;;;;;;;;2.90;99.90;;;1.70;100.00;95952.75;10515367;28;2082;-75
2022/11/30 07:20:24;;;;;;;;;;;2.90;99.90;;;1.78;100.00;95949.88;10507212;28;2421;-75
2022/11/30 07:30:50;;;;;;;;;;;;;;;1.83;100.00;95962.47;10488122;28;1966;-73
2022/11/30 07:35:53;;;;;;;;;;;2.80;99.90;;;1.66;100.00;95956.06;10523723;28;2141;-78
2022/11/30 07:40:56;;;;;;;;;;;;;;;1.61;100.00;95964.66;10518023;28;2123;-77
2022/11/30 07:45:59;;;;;;;;;;;;;;;1.78;100.00;95960.47;10526332;28;2109;-81
2022/11/30 07:51:03;;;;;;;;;;;;;;;1.68;100.00;95954.81;10533576;28;2044;-80
2022/11/30 07:56:06;;;;;;;;;;;2.70;99.90;;;1.82;100.00;95956.34;10511825;28;1974;-88
2022/11/30 08:01:08;;;;;;;;;;;2.80;99.90;;;1.96;100.00;95959.72;10519314;28;1989;-86
2022/11/30 08:06:14;;;;;;;;;;;3.00;99.90;;;2.03;100.00;95963.13;10500028;28;2440;-84
2022/11/30 08:11:19;;;;;;;;;;;;;;;2.16;100.00;95957.75;10532973;28;1904;-80
2022/11/30 08:16:29;;;;;;;;;;;;;;;2.24;100.00;95961.16;10537598;28;1880;-85
2022/11/30 08:21:32;;;;;;;;;;;;;;;2.23;100.00;95962.16;10529924;28;2288;-82
2022/11/30 08:26:35;;;;;;;;;;;;;;;2.02;100.00;95966.00;10537543;28;2300;-85
2022/11/30 08:31:38;;;;;;;;;;;;;;;2.05;100.00;95970.91;10522973;28;2325;-82
2022/11/30 08:36:42;;;;;;;;;;;;;;;2.33;100.00;95973.13;10528740;28;2308;-82
2022/11/30 08:41:53;;;;;;;;;;;;;;;2.33;100.00;95979.22;10520272;28;2360;-83
2022/11/30 08:46:56;;;;;;;;;;;;;;;2.26;100.00;95977.66;10522610;28;2319;-83
2022/11/30 08:51:59;;;;;;;;;;;;;;;2.23;100.00;95978.09;10536976;28;2359;-81
2022/11/30 08:57:20;;;;;;;;;;;3.30;99.90;;;2.39;100.00;95988.16;10521705;28;2314;-78
2022/11/30 09:02:22;;;;;;;;;;;3.40;99.90;;;2.34;100.00;95990.66;10528105;28;2609;-84
2022/11/30 09:07:29;;;;;;;;;;;3.30;99.90;;;2.41;100.00;95988.75;10546433;28;2170;-92
2022/11/30 09:17:38;;;;;;;;;;;3.40;99.90;;;2.44;100.00;95991.78;10572078;28;2321;-86
2022/11/30 09:22:41;;;;;;;;;;;;;;;2.40;100.00;95995.09;10513524;28;1946;-87
2022/11/30 09:27:45;;;;;;;;;;;;;;;2.53;100.00;95991.50;10541163;28;2213;-81
2022/11/30 09:32:48;;;;;;;;;;;;;;;2.72;100.00;95983.38;10546310;28;2159;-85
2022/11/30 09:37:51;;;;;;;;;;;;;;;2.79;100.00;95979.84;10536992;28;2208;-85
2022/11/30 09:42:54;;;;;;;;;;;;;;;2.86;100.00;95983.22;10523032;28;2355;-85
2022/11/30 09:47:57;;;;;;;;;;;;;;;3.11;100.00;95980.53;10518714;28;2276;-84
2022/11/30 09:53:02;;;;;;;;;;;;;;;3.19;100.00;95975.75;10515773;28;2354;-84
2022/11/30 09:58:05;;;;;;;;;;;4.00;99.90;;;3.28;100.00;95967.47;10527099;28;2342;-83
2022/11/30 10:03:08;;;;;;;;;;;4.20;99.90;;;3.00;100.00;95968.81;10501831;28;2320;-79
2022/11/30 10:08:11;;;;;;;;;;;4.10;99.90;;;2.85;100.00;95973.66;10501026;28;2273;-76
2022/11/30 10:13:13;;;;;;;;;;;3.90;99.90;;;2.81;100.00;95968.00;10506534;28;2323;-76
2022/11/30 10:18:16;;;;;;;;;;;4.00;99.90;;;2.97;100.00;95974.53;10500613;28;2285;-74
2022/11/30 10:23:19;;;;;;;;;;;3.70;99.90;;;3.08;100.00;95968.50;10502096;28;2458;-77
2022/11/30 10:28:22;;;;;;;;;;;;;;;3.20;100.00;95974.69;10505015;28;2288;-78
2022/11/30 10:33:45;;;;;;;;;;;;;;;3.19;100.00;95977.59;10480708;28;2288;-76
2022/11/30 10:38:48;;;;;;;;;;;;;;;3.06;100.00;95972.44;10499396;28;2419;-77
2022/11/30 10:43:51;;;;;;;;;;;4.20;99.90;;;3.16;100.00;95972.69;10500112;28;2294;-77
2022/11/30 10:48:55;;;;;;;;;;;4.20;99.90;;;3.36;100.00;95967.16;10525429;28;2344;-76
2022/11/30 10:53:59;;;;;;;;;;;4.00;99.90;;;3.64;100.00;95948.81;10513329;28;2362;-78
2022/11/30 10:59:01;;;;;;;;;;;4.40;99.90;;;3.55;100.00;95950.16;10512099;28;2359;-78
2022/11/30 11:04:04;;;;;;;;;;;4.50;99.90;;;3.31;100.00;95941.28;10516546;28;2334;-78
2022/11/30 11:09:07;;;;;;;;;;;4.40;99.90;;;3.52;100.00;95934.66;10513314;28;2331;-78
2022/11/30 11:14:09;;;;;;;;;;;4.40;99.90;;;3.65;100.00;95939.78;10495403;28;2299;-77
2022/11/30 11:19:13;;;;;;;;;;;4.50;99.90;;;3.89;100.00;95935.38;10519474;28;2264;-77
2022/11/30 11:24:18;;;;;;;;;;;4.70;99.90;;;3.80;100.00;95937.53;10522012;28;2374;-76
2022/11/30 11:29:30;;;;;;;;;;;4.80;99.90;;;4.06;100.00;95941.63;10516395;28;2350;-77
2022/11/30 11:34:33;;;;;;;;;;;4.90;99.90;;;3.94;100.00;95927.50;10507309;28;2247;-78
2022/11/30 11:39:36;;;;;;;;;;;4.90;99.90;;;3.95;100.00;95926.47;10532608;28;2302;-77
2022/11/30 11:44:41;;;;;;;;;;;5.10;99.90;;;3.52;100.00;95929.34;10530891;28;2263;-77
2022/11/30 11:49:46;;;;;;;;;;;4.70;99.90;;;3.42;100.00;95934.38;10510636;28;2325;-75
2022/11/30 11:54:49;;;;;;;;;;;4.60;99.90;;;3.28;100.00;95940.91;10531315;28;2389;-78
2022/11/30 11:59:52;;;;;;;;;;;4.40;99.90;;;3.24;100.00;95929.88;10522348;28;2304;-78
2022/11/30 12:04:56;;;;;;;;;;;4.40;99.90;;;3.04;100.00;95935.44;10511340;28;2140;-77
2022/11/30 12:09:59;;;;;;;;;;;4.20;99.90;;;3.05;100.00;95938.91;10515251;28;2321;-76
2022/11/30 12:15:02;;;;;;;;;;;4.20;99.90;;;3.20;100.00;95928.72;10516176;28;2409;-78
2022/11/30 12:20:05;;;;;;;;;;;4.20;99.90;;;3.55;100.00;95923.56;10513589;28;2336;-75
2022/11/30 12:25:09;;;;;;;;;;;4.30;99.90;;;3.21;100.00;95928.50;10514497;28;2381;-77
2022/11/30 12:30:14;;;;;;;;;;;4.30;99.90;;;3.11;100.00;95930.06;10515901;28;2301;-77
2022/11/30 12:35:17;;;;;;;;;;;4.20;99.90;;;3.05;100.00;95937.06;10517638;28;2364;-77
2022/11/30 12:40:20;;;;;;;;;;;4.20;99.90;;;3.14;100.00;95932.28;10515960;28;2073;-77
2022/11/30 12:45:22;;;;;;;;;;;4.20;99.90;;;3.20;100.00;95926.06;10505859;28;2333;-78
2022/11/30 12:50:25;;;;;;;;;;;4.20;99.90;;;3.16;100.00;95935.50;10493063;28;2376;-82
2022/11/30 12:55:28;;;;;;;;;;;4.30;99.90;;;3.24;100.00;95927.22;10504018;28;2554;-78
2022/11/30 13:00:34;;;;;;;;;;;4.20;99.90;;;3.04;100.00;95924.81;10515892;28;2325;-87
2022/11/30 13:05:36;;;;;;;;;;;4.20;99.90;;;2.96;100.00;95930.44;10521842;28;2283;-87
2022/11/30 13:10:39;;;;;;;;;;;4.00;99.90;;;2.98;100.00;95931.84;10516137;28;2278;-84
2022/11/30 13:15:43;;;;;;;;;;;4.10;99.90;;;3.00;100.00;95920.19;10509474;28;2322;-80
2022/11/30 13:20:45;;;;;;;;;;;4.00;99.90;;;3.00;100.00;95923.66;10504676;28;2321;-78
2022/11/30 13:25:48;;;;;;;;;;;4.00;99.90;;;3.14;100.00;95925.13;10497646;28;2332;-78
2022/11/30 13:31:11;;;;;;;;;;;4.00;99.90;;;3.21;100.00;95933.81;10509265;28;2478;-76
2022/11/30 13:36:14;;;;;;;;;;;4.20;99.90;;;3.29;100.00;95924.72;10518250;28;2369;-79
2022/11/30 13:41:17;;;;;;;;;;;4.20;99.90;;;3.38;100.00;95925.25;10511718;28;2013;-79
2022/11/30 13:46:19;;;;;;;;;;;4.30;99.90;;;3.37;100.00;95927.09;10515987;28;2283;-77
2022/11/30 13:51:22;;;;;;;;;;;4.50;99.90;;;3.06;100.00;95933.41;10514696;28;2363;-78
2022/11/30 13:56:25;;;;;;;;;;;4.20;99.90;;;2.97;100.00;95940.84;10512052;28;2333;-78
2022/11/30 14:01:28;;;;;;;;;;;4.10;99.90;;;2.97;100.00;95942.69;10512200;28;2266;-77
2022/11/30 14:06:48;;;;;;;;;;;4.00;99.90;;;2.96;100.00;95946.38;10509472;28;2329;-77
2022/11/30 14:11:51;;;;;;;;;;;4.00;99.90;;;2.79;100.00;95945.31;10495759;28;2352;-78
2022/11/30 14:16:53;;;;;;;;;;;3.90;99.90;;;2.76;100.00;95943.13;10514751;28;2281;-77
2022/11/30 14:21:56;;;;;;;;;;;3.90;99.90;;;2.79;100.00;95937.38;10513403;28;2399;-78
2022/11/30 14:26:59;;;;;;;;;;;3.80;99.90;;;2.55;100.00;95953.13;10508259;28;1925;-79
2022/11/30 14:32:01;;;;;;;;;;;3.70;99.90;;;2.58;100.00;95958.00;10517782;28;2424;-80
2022/11/30 14:37:04;;;;;;;;;;;3.70;99.90;;;2.35;100.00;95963.09;10522471;28;1899;-79
2022/11/30 14:42:07;;;;;;;;;;;3.60;99.90;;;2.11;100.00;95970.84;10517220;28;2250;-80
2022/11/30 14:47:11;;;;;;;;;;;3.40;99.90;;;2.14;100.00;95970.41;10517892;28;2358;-77
2022/11/30 14:52:14;;;;;;;;;;;3.20;99.90;;;2.25;100.00;95970.75;10518833;28;2319;-79
2022/11/30 14:57:16;;;;;;;;;;;3.20;99.90;;;2.34;100.00;95970.25;10510553;28;2274;-76
2022/11/30 15:02:19;;;;;;;;;;;3.40;99.90;;;2.04;100.00;95967.44;10507518;28;2358;-78
2022/11/30 15:07:23;;;;;;;;;;;3.30;99.90;;;1.89;100.00;95973.03;10511332;28;2273;-78
2022/11/30 15:12:27;;;;;;;;;;;3.10;99.90;;;1.86;100.00;95970.00;10516163;28;2151;-72
2022/11/30 15:17:31;;;;;;;;;;;3.00;99.90;;;1.83;100.00;95973.06;10496476;28;2286;-76
2022/11/30 15:22:38;;;;;;;;;;;2.90;99.90;;;1.84;100.00;95972.03;10487713;28;2302;-74
2022/11/30 15:27:41;;;;;;;;;;;3.00;99.90;;;1.80;100.00;95979.63;10506214;28;2306;-72
2022/11/30 15:32:44;;;;;;;;;;;2.90;99.90;;;1.81;100.00;95980.44;10498786;28;2278;-72
2022/11/30 15:37:47;;;;;;;;;;;2.90;99.90;;;1.67;100.00;95985.00;10488581;28;2381;-71
2022/11/30 15:42:49;;;;;;;;;;;2.70;99.90;;;1.49;100.00;95980.41;10501552;28;2282;-70
2022/11/30 15:47:53;;;;;;;;;;;2.60;99.90;;;1.40;100.00;95989.63;10477704;28;2291;-73
2022/11/30 15:52:56;;;;;;;;;;;2.50;99.90;;;1.55;100.00;95986.69;10492815;28;2378;-72
2022/11/30 15:57:59;;;;;;;;;;;2.60;99.90;;;1.67;100.00;95989.50;10499030;28;2294;-70
2022/11/30 16:03:02;;;;;;;;;;;2.60;99.90;;;1.51;100.00;95996.88;10493465;28;2411;-73
2022/11/30 16:08:05;;;;;;;;;;;2.60;99.90;;;1.46;100.00;95996.69;10499155;28;2317;-72
2022/11/30 16:13:08;;;;;;;;;;;2.60;99.90;;;1.29;100.00;96003.50;10499441;28;2295;-71
2022/11/30 16:18:12;;;;;;;;;;;2.40;99.90;;;1.30;100.00;96000.66;10491397;28;2344;-72
2022/11/30 16:23:15;;;;;;;;;;;2.40;99.90;;;1.38;100.00;95996.94;10495469;28;2299;-72
2022/11/30 16:28:32;;;;;;;;;;;2.40;99.90;;;1.38;100.00;95996.94;10502911;28;2037;-72
2022/11/30 16:33:35;;;;;;;;;;;2.50;99.90;;;1.27;100.00;96010.84;10504676;28;2282;-72
2022/11/30 16:38:38;;;;;;;;;;;2.40;99.90;;;1.27;100.00;96005.53;10498849;28;2271;-70
2022/11/30 16:43:45;;;;;;;;;;;2.30;99.90;;;1.29;100.00;96006.16;10493693;28;2219;-71
2022/11/30 16:48:49;;;;;;;;;;;2.40;99.90;;;1.17;100.00;96010.47;10503529;28;2282;-71
2022/11/30 16:53:52;;;;;;;;;;;2.30;99.90;;;1.24;100.00;96012.09;10475342;28;2376;-70
2022/11/30 16:58:56;;;;;;;;;;;2.30;99.90;;;1.23;100.00;96015.75;10500009;28;1966;-72
2022/11/30 17:04:00;;;;;;;;;;;2.30;99.90;;;0.96;100.00;96008.91;10496182;28;2669;-72
2022/11/30 17:09:03;;;;;;;;;;;2.10;99.90;;;0.92;100.00;96005.06;10487144;28;2329;-71
2022/11/30 17:14:09;;;;;;;;;;;2.00;99.90;;;1.06;100.00;96017.22;10484619;28;2279;-73
2022/11/30 17:19:11;;;;;;;;;;;2.00;99.90;;;1.01;100.00;96014.38;10487859;28;2318;-72
2022/11/30 17:24:14;;;;;;;;;;;2.10;99.90;;;0.95;100.00;96017.84;10471296;28;2371;-73
2022/11/30 17:29:18;;;;;;;;;;;2.00;99.90;;;1.08;100.00;96016.00;10493984;28;2371;-72
2022/11/30 17:34:21;;;;;;;;;;;2.00;99.90;;;1.21;100.00;96022.25;10493872;28;2230;-78
2022/11/30 17:39:25;;;;;;;;;;;2.20;99.90;;;0.94;100.00;96024.97;10493462;28;2360;-74
2022/11/30 17:44:27;;;;;;;;;;;2.00;99.90;;;1.03;100.00;96030.88;10504948;28;2325;-73
2022/11/30 17:49:31;;;;;;;;;;;2.00;99.90;;;1.01;100.00;96023.13;10505890;28;2314;-74
2022/11/30 17:54:34;;;;;;;;;;;2.10;99.90;;;0.84;100.00;96019.31;10509710;28;2341;-73
2022/11/30 17:59:43;;;;;;;;;;;2.00;99.90;;;0.78;100.00;96023.59;10512519;28;2339;-73
2022/11/30 18:04:48;;;;;;;;;;;1.90;99.90;;;0.96;100.00;96020.31;10519313;28;2306;-72
2022/11/30 18:09:51;;;;;;;;;;;2.00;99.90;;;1.10;100.00;96026.38;10519666;28;2362;-75
2022/11/30 18:14:54;;;;;;;;;;;2.00;99.90;;;1.06;100.00;96025.97;10512562;28;2341;-74
2022/11/30 18:19:57;;;;;;;;;;;2.10;99.90;;;0.94;100.00;96032.94;10514513;28;2599;-70
2022/11/30 18:25:01;;;;;;;;;;;2.00;99.90;;;1.03;100.00;96046.78;10524816;28;2277;-77
2022/11/30 18:30:03;;;;;;;;;;;2.10;99.90;;;1.22;100.00;96040.63;10522916;28;2006;-74
2022/11/30 18:35:13;;;;;;;;;;;2.20;99.90;;;1.27;100.00;96035.50;10519716;28;2341;-76
2022/11/30 18:40:16;;;;;;;;;;;2.30;99.90;;;1.02;100.00;96051.25;10524739;28;2384;-74
2022/11/30 18:45:21;;;;;;;;;;;2.30;99.90;;;1.14;100.00;96042.66;10516943;28;2370;-73
2022/11/30 18:50:23;;;;;;;;;;;2.10;99.90;;;0.97;100.00;96048.41;10499576;28;2359;-69
2022/11/30 18:55:26;;;;;;;;;;;2.10;99.90;;;0.93;100.00;96057.78;10498756;28;2368;-69
2022/11/30 19:00:29;;;;;;;;;;;2.00;99.90;;;0.89;100.00;96061.88;10522078;28;2279;-70
2022/11/30 19:05:33;;;;;;;;;;;2.00;99.90;;;0.86;100.00;96056.97;10506644;28;2057;-70
2022/11/30 19:10:36;;;;;;;;;;;2.00;99.90;;;0.87;100.00;96052.50;10494110;28;2052;-71
2022/11/30 19:15:39;;;;;;;;;;;2.00;99.90;;;0.96;100.00;96062.66;10500844;28;2314;-70
2022/11/30 19:20:41;;;;;;;;;;;2.00;99.90;;;0.93;100.00;96063.06;10504204;28;2085;-71
2022/11/30 19:25:45;;;;;;;;;;;1.90;99.90;;;1.02;100.00;96055.75;10494908;28;2449;-71
2022/11/30 19:30:48;;;;;;;;;;;2.00;99.90;;;1.12;100.00;96060.59;10481639;28;2292;-70
2022/11/30 19:35:51;;;;;;;;;;;2.10;99.90;;;1.10;100.00;96054.69;10504379;28;2330;-70
2022/11/30 19:40:54;;;;;;;;;;;2.10;99.90;;;1.06;100.00;96052.44;10502357;28;2325;-71
2022/11/30 19:45:58;;;;;;;;;;;2.10;99.90;;;1.13;100.00;96062.22;10505821;28;2073;-70
2022/11/30 19:51:02;;;;;;;;;;;2.30;99.90;;;1.11;100.00;96059.78;10507886;28;1958;-70
2022/11/30 19:56:05;;;;;;;;;;;2.20;99.90;;;0.91;100.00;96069.59;10504069;28;2751;-72
2022/11/30 20:01:08;;;;;;;;;;;2.10;99.90;;;1.02;100.00;96068.97;10522804;28;2295;-73
2022/11/30 20:06:12;;;;;;;;;;;2.00;99.90;;;1.05;100.00;96068.56;10524056;28;2439;-74
2022/11/30 20:11:16;;;;;;;;;;;2.00;99.90;;;1.14;100.00;96064.66;10524684;28;2437;-74
2022/11/30 20:16:18;;;;;;;;;;;2.10;99.90;;;1.24;100.00;96069.53;10525483;28;1994;-71
2022/11/30 20:21:21;;;;;;;;;;;2.20;99.90;;;1.19;100.00;96071.97;10504196;28;2441;-73
2022/11/30 20:26:24;;;;;;;;;;;2.20;99.90;;;1.27;100.00;96058.50;10507716;28;2370;-70
2022/11/30 20:31:28;;;;;;;;;;;2.30;99.90;;;1.31;100.00;96059.72;10516600;28;2380;-71
2022/11/30 20:36:30;;;;;;;;;;;2.30;99.90;;;1.31;100.00;96065.03;10511777;28;2333;-72
2022/11/30 20:41:33;;;;;;;;;;;2.40;99.90;;;1.30;100.00;96077.47;10505174;28;2275;-71
2022/11/30 20:46:36;;;;;;;;;;;2.30;99.90;;;1.34;100.00;96060.13;10532229;28;2347;-72
2022/11/30 20:51:40;;;;;;;;;;;2.40;99.90;;;1.28;100.00;96058.31;10532510;28;2450;-72
2022/11/30 20:56:43;;;;;;;;;;;2.40;99.90;;;1.24;100.00;96069.53;10520014;28;2004;-72
2022/11/30 21:01:49;;;;;;;;;;;2.30;99.90;;;1.16;100.00;96077.72;10541963;28;1951;-71
2022/11/30 21:06:53;;;;;;;;;;;2.30;99.90;;;1.06;100.00;96073.63;10526792;28;2310;-74
2022/11/30 21:11:55;;;;;;;;;;;2.20;99.90;;;1.01;100.00;96081.38;10530392;28;2351;-73
2022/11/30 21:16:58;;;;;;;;;;;2.10;99.90;;;1.00;100.00;96079.75;10522110;28;2347;-71
2022/11/30 21:22:05;;;;;;;;;;;2.10;99.90;;;1.18;100.00;96080.94;10526137;28;2335;-73
2022/11/30 21:27:08;;;;;;;;;;;2.20;99.90;;;1.12;100.00;96087.06;10531963;28;2282;-68
2022/11/30 21:32:10;;;;;;;;;;;2.10;99.90;;;1.11;100.00;96080.16;10529867;28;2630;-69
2022/11/30 21:37:13;;;;;;;;;;;2.10;99.90;;;1.13;100.00;96078.91;10541946;28;2417;-71
2022/11/30 21:42:16;;;;;;;;;;;2.20;99.90;;;1.20;100.00;96078.91;10511572;28;2327;-72
2022/11/30 21:47:18;;;;;;;;;;;2.20;99.90;;;1.03;100.00;96075.91;10508204;28;2358;-73
2022/11/30 21:52:21;;;;;;;;;;;2.10;99.90;;;1.08;100.00;96071.63;10518791;28;2350;-74
2022/11/30 21:57:25;;;;;;;;;;;2.20;99.90;;;1.05;100.00;96074.66;10535667;28;2408;-69
2022/11/30 22:02:27;;;;;;;;;;;2.10;99.90;;;1.13;100.00;96078.09;10521144;28;1938;-67
2022/11/30 22:07:31;;;;;;;;;;;2.20;99.90;;;1.01;100.00;96072.63;10507757;28;2471;-68
2022/11/30 22:12:34;;;;;;;;;;;2.20;99.90;;;1.15;100.00;96074.25;10508116;28;2211;-68
2022/11/30 22:17:37;;;;;;;;;;;;;;;1.04;100.00;96073.03;10518287;28;2360;-70
2022/11/30 22:22:40;;;;;;;;;;;;;;;1.29;100.00;96072.38;10513989;28;2343;-71
2022/11/30 22:27:43;;;;;;;;;;;;;;;1.11;100.00;96062.44;10509137;28;2324;-67
2022/11/30 22:32:48;;;;;;;;;;;;;;;1.19;100.00;96071.97;10512449;28;2681;-68
2022/11/30 22:37:51;;;;;;;;;;;;;;;1.32;100.00;96058.69;10518475;28;2348;-68
2022/11/30 22:42:54;;;;;;;;;;;;;;;1.33;100.00;96060.31;10503306;28;1997;-72
2022/11/30 22:47:57;;;;;;;;;;;;;;;1.17;100.00;96074.84;10516235;28;2343;-73
2022/11/30 22:53:00;;;;;;;;;;;;;;;0.93;100.00;96068.34;10515772;28;2386;-68
2022/11/30 22:58:05;;;;;;;;;;;;;;;0.88;100.00;96075.28;10508985;28;2384;-67
2022/11/30 23:03:08;;;;;;;;;;;;;;;0.75;100.00;96089.34;10507968;28;2285;-68
2022/11/30 23:08:12;;;;;;;;;;;;;;;0.58;100.00;96081.03;10514220;28;2418;-69
2022/11/30 23:13:15;;;;;;;;;;;;;;;0.60;100.00;96076.31;10509234;28;2010;-69
2022/11/30 23:18:18;;;;;;;;;;;;;;;0.73;100.00;96078.16;10511069;28;2349;-69
2022/11/30 23:23:21;;;;;;;;;;;;;;;0.75;100.00;96070.81;10506211;28;2038;-69
2022/11/30 23:28:25;;;;;;;;;;;;;;;0.83;100.00;96062.69;10503283;28;2572;-69
2022/11/30 23:33:28;;;;;;;;;;;;;;;0.76;100.00;96061.84;10513335;28;2398;-70
2022/11/30 23:38:31;;;;;;;;;;;;;;;0.71;100.00;96059.03;10505602;28;2412;-72
2022/11/30 23:43:35;;;;;;;;;;;;;;;0.68;100.00;96062.06;10521522;28;2359;-68
2022/11/30 23:48:38;;;;;;;;;;;;;;;0.48;100.00;96059.44;10516261;28;2350;-68
2022/11/30 23:53:41;;;;;;;;;;;;;;;0.56;100.00;96061.06;10513110;28;2227;-69
2022/11/30 23:58:45;;;;;;;;;;;;;;;0.49;100.00;96051.28;10513580;28;2346;-67
